Flight Track Log - Related Links

Times and Time Zones

All times are in EDT time to prevent confusion due to time zone crossing. See the CSJ405 flight status page for this flight to view local times or setup timezone preferences in your user account.

Time Position Orientation Groundspeed Altitude Reporting Facility
EDT Latitude Longitude Course Direction KTS MPH feet Rate Location/Type
Fri 08:36:47 PM 40.8333 -74.2833 346° North 89 102 2,800  Level New York TRACON
Fri 08:37:47 PM 40.8000 -74.2833 180° South 89 102 4,000 1,250 Climbing New York TRACON
Fri 08:38:47 PM 40.7833 -74.2833 180° South 87 100 5,300 1,250 Climbing New York TRACON
Fri 08:39:47 PM 40.7833 -74.3000 270° West 97 112 6,500 1,190 Climbing New York TRACON
Fri 08:40:53 PM 40.8167 -74.3167 339° North 97 112 7,800 1,095 Climbing New York TRACON
Fri 08:41:53 PM 40.8333 -74.3333 323° Northwest 108 124 8,800 600 Climbing New York TRACON
Fri 08:42:00 PM 41.1068 -74.3745 346° North  Level FlightAware Approximate
Fri 08:42:53 PM 40.8667 -74.3500 339° North 140 161 9,000  Level New York TRACON
Fri 08:43:53 PM 40.9167 -74.3667 346° North 160 184 9,000 -50 Level New York TRACON
Fri 08:44:53 PM 40.9500 -74.3833 339° North 161 185 8,900 50 Descending New York TRACON
Fri 08:45:53 PM 41.0000 -74.4000 346° North 168 193 9,100 50 Climbing New York TRACON
Fri 08:46:53 PM 41.0333 -74.4167 339° North 165 190 9,000  Descending New York TRACON
Fri 08:47:47 PM 41.0833 -74.4333 346° North 164 189 9,100 -21 Climbing New York TRACON
Fri 08:49:00 PM 41.1185 -74.4864 North  Level Estimated
Fri 08:56:00 PM 41.4014 -74.5860 305° West  Level FlightAware Approximate
Fri 08:57:00 PM 41.4286 -74.6324 308° West  Level Estimated
Fri 08:58:00 PM 41.4557 -74.6788 308° West  Level Estimated
Fri 08:59:00 PM 41.4828 -74.7253 308° West  Level Estimated
Fri 09:00:00 PM 41.5099 -74.7718 308° West  Level Estimated
Fri 09:01:00 PM 41.5370 -74.8184 308° West  Level Estimated
Fri 09:02:00 PM 41.5640 -74.8650 308° West  Level Estimated
Fri 09:03:00 PM 41.5911 -74.9116 308° West  Level Estimated
Fri 09:04:00 PM 41.6181 -74.9583 308° West  Level Estimated
Fri 09:05:00 PM 41.6456 -75.0059 308° West  Level Estimated
Fri 09:06:00 PM 41.6730 -75.0534 308° West  Level Estimated
Fri 09:07:00 PM 41.7005 -75.1011 308° West  Level Estimated
Fri 09:08:00 PM 41.7279 -75.1487 308° West  Level Estimated
Fri 09:09:00 PM 41.7553 -75.1964 308° West  Level Estimated
Fri 09:10:00 PM 41.7827 -75.2442 308° West  Level Estimated
Fri 09:11:00 PM 41.8100 -75.2920 308° West  Level Estimated
Fri 09:12:00 PM 41.8374 -75.3398 308° West  Level Estimated
Fri 09:13:00 PM 41.8647 -75.3877 307° West  Level Estimated
Fri 09:14:00 PM 41.8920 -75.4356 307° West  Level Estimated
Fri 09:15:00 PM 41.9193 -75.4836 307° West  Level Estimated
Fri 09:16:00 PM 41.9465 -75.5315 307° West  Level Estimated
Fri 09:17:00 PM 41.9738 -75.5796 307° West  Level Estimated
Fri 09:18:00 PM 42.0010 -75.6277 307° West  Level Estimated
Fri 09:19:00 PM 42.0282 -75.6758 307° West  Level Estimated
Fri 09:20:00 PM 42.0554 -75.7240 307° West  Level Estimated
Fri 09:21:00 PM 42.0825 -75.7721 307° West  Level Estimated
Fri 09:22:00 PM 42.1097 -75.8204 307° West  Level Estimated
Fri 09:23:00 PM 42.1368 -75.8687 307° West  Level Estimated
Fri 09:24:00 PM 42.1639 -75.9170 307° West  Level Estimated
Fri 09:25:00 PM 42.1910 -75.9654 307° West  Level Estimated
Fri 09:26:00 PM 42.2180 -76.0138 307° West  Level Estimated
Fri 09:27:00 PM 42.2451 -76.0622 307° West  Level Estimated
Fri 09:28:00 PM 42.2721 -76.1107 307° West  Level Estimated
Fri 09:29:00 PM 42.2991 -76.1592 307° West  Level Estimated
Fri 09:30:00 PM 42.3261 -76.2078 307° West  Level Estimated
Fri 09:31:00 PM 42.3530 -76.2564 307° West  Level Estimated
Fri 09:32:00 PM 42.3800 -76.3051 307° West  Level Estimated
Fri 09:33:00 PM 42.4069 -76.3538 307° West  Level Estimated
Fri 09:34:00 PM 42.4338 -76.4025 307° West  Level Estimated
Fri 09:34:22 PM 42.5442 -76.6767 307° West 178 205 8,000  Level Cleveland Center
Fri 09:34:46 PM 42.5533 -76.6989 299° West 176 203 7,900  Descending Cleveland Center
Fri 09:35:00 PM 42.4607 -76.4513 307° West  Level Estimated
Fri 09:35:47 PM 42.5844 -76.7561 306° West 180 207 8,000  Level Cleveland Center
Fri 09:36:00 PM 42.4875 -76.5001 307° West  Level Estimated
Fri 09:36:48 PM 42.6153 -76.8106 308° West 176 203 8,100  Level Cleveland Center
Fri 09:37:00 PM 42.5144 -76.5490 307° West  Level Estimated
Fri 09:37:48 PM 42.6464 -76.8653 308° West 181 208 8,100  Level Cleveland Center
Fri 09:38:00 PM 42.5412 -76.5979 307° West  Level Estimated
Fri 09:38:49 PM 42.6772 -76.9200 307° West 187 215 7,700  Level Cleveland Center
Fri 09:39:00 PM 42.5680 -76.6469 307° West  Level Estimated
Fri 09:39:49 PM 42.7103 -76.9803 307° West 193 222 7,100  Level Cleveland Center
Fri 09:40:50 PM 42.7453 -77.0319 313° West 195 224 6,500 -541 Descending Cleveland Center
Fri 09:41:51 PM 42.7786 -77.0922 307° West 194 223 6,000 -545 Descending Cleveland Center
Fri 09:42:51 PM 42.8136 -77.1469 311° West 191 220 5,400 -446 Descending Cleveland Center
Fri 09:43:52 PM 42.8467 -77.2103 305° West 189 217 5,100 -198 Descending Cleveland Center
Fri 09:44:52 PM 42.8794 -77.2625 311° West 180 207 5,000 -248 Descending Cleveland Center
Fri 09:45:53 PM 42.9100 -77.3147 309° West 184 212 4,600 -492 Descending Cleveland Center
Fri 09:46:54 PM 42.9431 -77.3725 308° West 194 223 4,000 -595 Descending Cleveland Center
Fri 09:47:54 PM 42.9736 -77.4306 306° West 193 222 3,400 -595 Descending Cleveland Center
Fri 09:48:55 PM 43.0128 -77.4853 314° West 192 221 2,800 -590 Descending Cleveland Center
Fri 09:49:56 PM 43.0414 -77.5464 303° West 193 222 2,200 -545 Descending Cleveland Center
Fri 09:50:56 PM 43.0681 -77.6078 301° West 185 213 1,700 -347 Descending Cleveland Center
Fri 09:51:57 PM 43.0903 -77.6633 299° West 157 181 1,500 -496 Descending Cleveland Center
Fri 09:52:57 PM 43.1136 -77.6767 337° Northwest 83 96 700 -800 Descending Cleveland Center

Login

Don't have an account? Register now (free) for customized features, flight alerts, and more!